Time,TemperatureF,DewpointF,PressureIn,WindDirection,WindDirectionDegrees,WindSpeedMPH,WindSpeedGustMPH,Humidity,HourlyPrecipIn,Conditions,Clouds,dailyrainin,SoftwareType,DateUTC
2013-04-19 00:09:00,67.4,60.0,29.96,SE,136,0.0,1.0,78,0.00,,,0.00,weatherlink.com 1.10,2013-04-19 04:09:00,
2013-04-19 00:24:00,66.9,60.0,29.96,ESE,117,0.0,3.0,79,0.00,,,0.00,weatherlink.com 1.10,2013-04-19 04:24:00,
2013-04-19 00:39:00,66.6,61.0,29.96,SE,129,1.0,3.0,81,0.00,,,0.00,weatherlink.com 1.10,2013-04-19 04:39:00,
2013-04-19 00:54:00,66.3,61.0,29.96,WSW,256,0.0,6.0,82,0.00,,,0.00,weatherlink.com 1.10,2013-04-19 04:54:00,
2013-04-19 01:09:00,66.0,61.0,29.95,NE,45,0.0,2.0,83,0.00,,,0.00,weatherlink.com 1.10,2013-04-19 05:09:00,
2013-04-19 01:24:00,65.6,61.0,29.94,ESE,120,0.0,1.0,84,0.00,,,0.00,weatherlink.com 1.10,2013-04-19 05:24:00,
2013-04-19 01:39:00,65.8,61.0,29.93,SE,140,0.0,2.0,85,0.00,,,0.00,weatherlink.com 1.10,2013-04-19 05:39:00,
2013-04-19 01:54:00,66.0,62.0,29.93,SSE,152,0.0,2.0,86,0.00,,,0.00,weatherlink.com 1.10,2013-04-19 05:54:00,
2013-04-19 02:09:00,66.0,62.0,29.93,East,94,0.0,2.0,86,0.00,,,0.00,weatherlink.com 1.10,2013-04-19 06:09:00,
2013-04-19 02:24:00,66.0,62.0,29.91,SW,219,0.0,4.0,87,0.00,,,0.00,weatherlink.com 1.10,2013-04-19 06:24:00,
2013-04-19 02:39:00,66.0,62.0,29.91,South,182,0.0,4.0,87,0.00,,,0.00,weatherlink.com 1.10,2013-04-19 06:39:00,
2013-04-19 02:54:00,66.0,62.0,29.90,SSW,194,0.0,6.0,87,0.00,,,0.00,weatherlink.com 1.10,2013-04-19 06:54:00,
2013-04-19 03:09:00,66.0,62.0,29.89,SSW,194,0.0,3.0,88,0.00,,,0.00,weatherlink.com 1.10,2013-04-19 07:09:00,
2013-04-19 03:24:00,66.0,62.0,29.89,South,181,0.0,3.0,88,0.00,,,0.00,weatherlink.com 1.10,2013-04-19 07:24:00,
2013-04-19 03:39:00,66.0,62.0,29.89,SE,130,0.0,5.0,88,0.00,,,0.00,weatherlink.com 1.10,2013-04-19 07:39:00,
2013-04-19 03:54:00,66.0,62.0,29.88,South,171,0.0,4.0,88,0.00,,,0.00,weatherlink.com 1.10,2013-04-19 07:54:00,
2013-04-19 04:09:00,66.0,62.0,29.88,South,169,1.0,6.0,88,0.00,,,0.00,weatherlink.com 1.10,2013-04-19 08:09:00,
2013-04-19 04:24:00,66.1,63.0,29.88,SSW,202,0.0,5.0,88,0.00,,,0.00,weatherlink.com 1.10,2013-04-19 08:24:00,
2013-04-19 04:39:00,66.3,63.0,29.88,SSW,207,0.0,5.0,88,0.00,,,0.00,weatherlink.com 1.10,2013-04-19 08:39:00,
2013-04-19 04:54:00,66.6,63.0,29.87,SSE,155,3.0,8.0,87,0.00,,,0.00,weatherlink.com 1.10,2013-04-19 08:54:00,
2013-04-19 05:09:00,66.6,63.0,29.86,South,184,1.0,8.0,87,0.00,,,0.00,weatherlink.com 1.10,2013-04-19 09:09:00,
2013-04-19 05:24:00,66.6,63.0,29.85,South,189,1.0,4.0,88,0.00,,,0.00,weatherlink.com 1.10,2013-04-19 09:24:00,
2013-04-19 05:39:00,66.6,63.0,29.85,South,184,3.0,8.0,87,0.00,,,0.00,weatherlink.com 1.10,2013-04-19 09:39:00,
2013-04-19 05:54:00,66.4,63.0,29.85,SSE,164,0.0,9.0,87,0.00,,,0.00,weatherlink.com 1.10,2013-04-19 09:54:00,
2013-04-19 06:09:00,66.3,63.0,29.85,South,182,3.0,4.0,88,0.00,,,0.00,weatherlink.com 1.10,2013-04-19 10:09:00,
2013-04-19 06:24:00,66.3,63.0,29.86,South,181,0.0,5.0,88,0.00,,,0.00,weatherlink.com 1.10,2013-04-19 10:24:00,
2013-04-19 06:39:00,66.3,63.0,29.85,South,187,2.0,6.0,88,0.00,,,0.00,weatherlink.com 1.10,2013-04-19 10:39:00,
2013-04-19 06:54:00,66.3,63.0,29.85,SSE,167,0.0,5.0,88,0.00,,,0.00,weatherlink.com 1.10,2013-04-19 10:54:00,
2013-04-19 07:09:00,66.3,63.0,29.85,ESE,103,0.0,9.0,88,0.00,,,0.00,weatherlink.com 1.10,2013-04-19 11:09:00,
2013-04-19 07:24:00,66.6,63.0,29.85,SSE,150,1.0,8.0,88,0.00,,,0.00,weatherlink.com 1.10,2013-04-19 11:24:00,
2013-04-19 07:39:00,66.8,63.0,29.87,SSW,200,0.0,6.0,88,0.00,,,0.00,weatherlink.com 1.10,2013-04-19 11:39:00,
2013-04-19 07:54:00,67.1,63.0,29.87,SSE,158,0.0,9.0,87,0.00,,,0.00,weatherlink.com 1.10,2013-04-19 11:54:00,
2013-04-19 08:09:00,67.4,64.0,29.87,SW,227,2.0,4.0,87,0.00,,,0.00,weatherlink.com 1.10,2013-04-19 12:09:00,
2013-04-19 08:24:00,67.6,63.0,29.87,SE,144,1.0,5.0,86,0.00,,,0.00,weatherlink.com 1.10,2013-04-19 12:24:00,
2013-04-19 08:39:00,68.1,64.0,29.86,South,182,0.0,9.0,85,0.00,,,0.00,weatherlink.com 1.10,2013-04-19 12:39:00,
2013-04-19 08:54:00,68.4,64.0,29.86,SE,133,0.0,12.0,85,0.00,,,0.00,weatherlink.com 1.10,2013-04-19 12:54:00,
2013-04-19 09:09:00,69.3,64.0,29.86,SW,217,1.0,5.0,84,0.00,,,0.00,weatherlink.com 1.10,2013-04-19 13:09:00,
2013-04-19 09:24:00,69.6,64.0,29.86,South,183,0.0,6.0,83,0.00,,,0.00,weatherlink.com 1.10,2013-04-19 13:24:00,
2013-04-19 09:39:00,70.3,65.0,29.86,SE,140,0.0,7.0,82,0.00,,,0.00,weatherlink.com 1.10,2013-04-19 13:39:00,
2013-04-19 09:54:00,70.8,64.0,29.85,South,188,1.0,4.0,80,0.00,,,0.00,weatherlink.com 1.10,2013-04-19 13:54:00,
2013-04-19 10:09:00,71.5,65.0,29.84,South,179,3.0,13.0,79,0.00,,,0.00,weatherlink.com 1.10,2013-04-19 14:09:00,
2013-04-19 10:24:00,71.6,64.0,29.84,SW,232,2.0,7.0,78,0.00,,,0.00,weatherlink.com 1.10,2013-04-19 14:24:00,
2013-04-19 10:39:00,72.1,65.0,29.84,SSE,159,2.0,6.0,77,0.00,,,0.00,weatherlink.com 1.10,2013-04-19 14:39:00,
2013-04-19 10:54:00,72.3,65.0,29.83,SSE,157,3.0,7.0,77,0.00,,,0.00,weatherlink.com 1.10,2013-04-19 14:54:00,
2013-04-19 11:09:00,73.3,65.0,29.82,ESE,109,0.0,6.0,76,0.00,,,0.00,weatherlink.com 1.10,2013-04-19 15:09:00,
2013-04-19 11:25:00,74.2,65.0,29.81,WSW,245,2.0,11.0,74,0.00,,,0.00,weatherlink.com 1.10,2013-04-19 15:25:00,
2013-04-19 11:40:00,74.7,65.0,29.81,South,179,7.0,9.0,72,0.00,,,0.00,weatherlink.com 1.10,2013-04-19 15:40:00,
2013-04-19 11:55:00,75.4,66.0,29.80,SW,225,1.0,8.0,72,0.00,,,0.00,weatherlink.com 1.10,2013-04-19 15:55:00,
2013-04-19 12:10:00,75.8,66.0,29.79,South,175,1.0,7.0,71,0.00,,,0.00,weatherlink.com 1.10,2013-04-19 16:10:00,
2013-04-19 12:25:00,76.3,65.0,29.79,East,101,0.0,6.0,69,0.00,,,0.00,weatherlink.com 1.10,2013-04-19 16:25:00,
2013-04-19 12:40:00,76.3,66.0,29.78,SW,223,2.0,9.0,70,0.00,,,0.00,weatherlink.com 1.10,2013-04-19 16:40:00,
2013-04-19 12:55:00,77.7,66.0,29.77,South,188,2.0,8.0,68,0.00,,,0.00,weatherlink.com 1.10,2013-04-19 16:55:00,
2013-04-19 13:10:00,79.0,66.0,29.75,SW,216,0.0,9.0,65,0.00,,,0.00,weatherlink.com 1.10,2013-04-19 17:10:00,
2013-04-19 13:40:00,79.0,65.0,29.74,SSE,165,2.0,9.0,62,0.00,,,0.00,weatherlink.com 1.10,2013-04-19 17:40:00,
2013-04-19 13:55:00,79.9,64.0,29.74,South,183,1.0,5.0,59,0.00,,,0.00,weatherlink.com 1.10,2013-04-19 17:55:00,
2013-04-19 14:10:00,79.8,65.0,29.73,SW,219,5.0,8.0,61,0.00,,,0.00,weatherlink.com 1.10,2013-04-19 18:10:00,
2013-04-19 14:25:00,79.8,65.0,29.74,SSE,156,0.0,6.0,60,0.00,,,0.00,weatherlink.com 1.10,2013-04-19 18:25:00,
2013-04-19 14:40:00,79.6,62.0,29.74,SW,236,1.0,7.0,56,0.00,,,0.00,weatherlink.com 1.10,2013-04-19 18:40:00,
2013-04-19 14:55:00,79.6,63.0,29.73,SW,235,3.0,10.0,57,0.00,,,0.00,weatherlink.com 1.10,2013-04-19 18:55:00,
2013-04-19 15:10:00,79.6,62.0,29.73,SW,232,1.0,8.0,55,0.00,,,0.00,weatherlink.com 1.10,2013-04-19 19:10:00,
2013-04-19 15:25:00,79.8,63.0,29.72,WSW,254,0.0,8.0,56,0.00,,,0.00,weatherlink.com 1.10,2013-04-19 19:25:00,
2013-04-19 15:40:00,78.1,67.0,29.73,NE,56,0.0,3.0,68,0.00,,,0.00,weatherlink.com 1.10,2013-04-19 19:40:00,
2013-04-19 15:55:00,74.9,67.0,29.73,South,172,1.0,3.0,75,0.01,,,0.01,weatherlink.com 1.10,2013-04-19 19:55:00,
2013-04-19 16:10:00,73.2,67.0,29.73,SW,223,0.0,3.0,80,0.01,,,0.01,weatherlink.com 1.10,2013-04-19 20:10:00,
2013-04-19 16:25:00,72.8,65.0,29.71,SW,233,0.0,6.0,76,0.01,,,0.01,weatherlink.com 1.10,2013-04-19 20:25:00,
2013-04-19 16:40:00,73.3,65.0,29.72,South,177,0.0,10.0,74,0.01,,,0.01,weatherlink.com 1.10,2013-04-19 20:40:00,
2013-04-19 16:55:00,70.9,65.0,29.77,West,275,2.0,10.0,81,0.08,,,0.09,weatherlink.com 1.10,2013-04-19 20:55:00,
2013-04-19 17:10:00,66.8,64.0,29.77,WSW,237,1.0,4.0,90,0.11,,,0.12,weatherlink.com 1.10,2013-04-19 21:10:00,
2013-04-19 17:40:00,66.4,64.0,29.75,SW,217,2.0,5.0,93,0.13,,,0.14,weatherlink.com 1.10,2013-04-19 21:40:00,
2013-04-19 17:55:00,66.3,65.0,29.73,SSW,203,0.0,5.0,94,0.05,,,0.14,weatherlink.com 1.10,2013-04-19 21:55:00,
2013-04-19 18:10:00,66.3,65.0,29.73,South,169,0.0,7.0,95,0.01,,,0.14,weatherlink.com 1.10,2013-04-19 22:10:00,
2013-04-19 18:25:00,66.1,65.0,29.74,SSE,167,0.0,3.0,95,0.00,,,0.14,weatherlink.com 1.10,2013-04-19 22:25:00,
2013-04-19 18:40:00,66.1,65.0,29.74,SW,229,0.0,5.0,95,0.00,,,0.14,weatherlink.com 1.10,2013-04-19 22:40:00,
2013-04-19 18:55:00,66.0,65.0,29.73,SSW,205,0.0,4.0,95,0.00,,,0.14,weatherlink.com 1.10,2013-04-19 22:55:00,
2013-04-19 19:11:00,65.8,64.0,29.74,SSW,207,0.0,6.0,95,0.01,,,0.15,weatherlink.com 1.10,2013-04-19 23:11:00,
2013-04-19 19:25:00,65.3,64.0,29.75,SW,220,0.0,4.0,94,0.01,,,0.15,weatherlink.com 1.10,2013-04-19 23:25:00,
2013-04-19 19:40:00,65.0,63.0,29.76,SSW,213,0.0,8.0,94,0.01,,,0.15,weatherlink.com 1.10,2013-04-19 23:40:00,
2013-04-19 19:55:00,64.5,63.0,29.76,WSW,243,0.0,6.0,93,0.02,,,0.16,weatherlink.com 1.10,2013-04-19 23:55:00,
2013-04-19 20:10:00,63.9,62.0,29.76,South,190,0.0,4.0,93,0.02,,,0.17,weatherlink.com 1.10,2013-04-20 00:10:00,
2013-04-19 20:25:00,62.6,60.0,29.76,SW,220,1.0,6.0,90,0.03,,,0.18,weatherlink.com 1.10,2013-04-20 00:25:00,
2013-04-19 20:40:00,61.0,58.0,29.78,SSE,153,0.0,7.0,88,0.03,,,0.18,weatherlink.com 1.10,2013-04-20 00:40:00,
2013-04-19 20:55:00,60.2,57.0,29.79,WSW,240,2.0,5.0,89,0.02,,,0.18,weatherlink.com 1.10,2013-04-20 00:55:00,
2013-04-19 21:10:00,59.3,56.0,29.77,East,99,2.0,6.0,87,0.01,,,0.18,weatherlink.com 1.10,2013-04-20 01:10:00,
2013-04-19 21:25:00,58.6,55.0,29.77,SSE,159,0.0,2.0,87,0.01,,,0.19,weatherlink.com 1.10,2013-04-20 01:25:00,
2013-04-19 21:40:00,57.8,54.0,29.79,South,187,0.0,4.0,88,0.01,,,0.19,weatherlink.com 1.10,2013-04-20 01:40:00,
2013-04-19 21:55:00,57.2,53.0,29.81,SSW,200,0.0,2.0,87,0.01,,,0.19,weatherlink.com 1.10,2013-04-20 01:55:00,
2013-04-19 22:10:00,56.7,52.0,29.81,SW,233,0.0,3.0,84,0.01,,,0.19,weatherlink.com 1.10,2013-04-20 02:10:00,
2013-04-19 22:26:00,55.9,51.0,29.82,WSW,255,1.0,4.0,84,0.00,,,0.19,weatherlink.com 1.10,2013-04-20 02:26:00,
2013-04-19 22:41:00,55.7,51.0,29.83,SSW,201,1.0,3.0,84,0.00,,,0.19,weatherlink.com 1.10,2013-04-20 02:41:00,
2013-04-19 22:56:00,55.7,52.0,29.84,WSW,256,1.0,4.0,86,0.00,,,0.19,weatherlink.com 1.10,2013-04-20 02:56:00,
2013-04-19 23:11:00,55.7,52.0,29.84,WNW,282,0.0,4.0,87,0.00,,,0.19,weatherlink.com 1.10,2013-04-20 03:11:00,
2013-04-19 23:26:00,55.1,50.0,29.86,WSW,238,2.0,3.0,84,0.00,,,0.19,weatherlink.com 1.10,2013-04-20 03:26:00,
2013-04-19 23:41:00,54.5,50.0,29.86,SSW,209,0.0,4.0,84,0.00,,,0.19,weatherlink.com 1.10,2013-04-20 03:41:00,
2013-04-19 23:56:00,54.4,50.0,29.87,SSW,196,1.0,5.0,86,0.00,,,0.19,weatherlink.com 1.10,2013-04-20 03:56:00,